createdAt,value
2022-10-05T00:01:46.270Z,5.20
2022-10-05T00:04:15.852Z,4.45
2022-10-05T00:06:45.316Z,4.63
2022-10-05T00:09:16.882Z,5.03
2022-10-05T00:11:44.794Z,5.43
2022-10-05T00:14:20.769Z,5.03
2022-10-05T00:16:48.228Z,5.40
2022-10-05T00:19:31.147Z,5.60
2022-10-05T00:22:14.823Z,5.57
2022-10-05T00:24:42.977Z,5.43
2022-10-05T00:27:25.180Z,5.57
2022-10-05T00:29:54.217Z,5.70
2022-10-05T00:32:21.841Z,6.53
2022-10-05T00:34:49.313Z,6.80
2022-10-05T00:37:17.002Z,6.35
2022-10-05T00:39:44.296Z,6.65
2022-10-05T00:42:35.116Z,7.45
2022-10-05T00:45:09.246Z,7.13
2022-10-05T00:48:07.512Z,7.20
2022-10-05T00:50:40.593Z,7.80
2022-10-05T00:53:20.428Z,7.18
2022-10-05T00:56:23.202Z,7.47
2022-10-05T00:58:59.497Z,8.25
2022-10-05T01:01:59.562Z,9.95
2022-10-05T01:04:48.090Z,10.93
2022-10-05T01:07:22.124Z,12.18
2022-10-05T01:10:08.474Z,11.32
2022-10-05T01:13:07.927Z,10.68
2022-10-05T01:16:06.936Z,9.45
2022-10-05T01:18:45.710Z,9.15
2022-10-05T01:21:24.264Z,8.45
2022-10-05T01:24:28.424Z,7.85
2022-10-05T01:27:16.004Z,8.38
2022-10-05T01:30:11.162Z,7.82
2022-10-05T01:32:45.818Z,7.72
2022-10-05T01:35:22.249Z,8.15
2022-10-05T01:38:08.667Z,7.60
2022-10-05T01:40:48.522Z,7.50
2022-10-05T01:43:36.523Z,7.25
2022-10-05T01:46:09.978Z,7.32
2022-10-05T01:48:52.340Z,7.28
2022-10-05T01:51:20.673Z,7.90
2022-10-05T01:54:00.161Z,8.07
2022-10-05T01:56:40.039Z,7.82
2022-10-05T01:59:19.967Z,7.25
2022-10-05T02:01:55.473Z,7.20
2022-10-05T02:05:00.246Z,7.28
2022-10-05T02:07:22.410Z,6.38
2022-10-05T02:10:01.038Z,6.65
2022-10-05T02:12:31.643Z,6.22
2022-10-05T02:15:04.115Z,5.78
2022-10-05T02:17:36.789Z,5.50
2022-10-05T02:20:09.157Z,5.38
2022-10-05T02:22:47.294Z,5.22
2022-10-05T02:25:17.568Z,5.22
2022-10-05T02:27:54.065Z,5.43
2022-10-05T02:30:21.717Z,5.40
2022-10-05T02:32:58.650Z,4.90
2022-10-05T02:35:26.257Z,4.90
2022-10-05T02:38:08.872Z,5.45
2022-10-05T02:40:45.251Z,5.15
2022-10-05T02:43:40.187Z,4.50
2022-10-05T02:46:15.460Z,4.43
2022-10-05T02:49:18.515Z,4.63
2022-10-05T02:52:20.044Z,4.50
2022-10-05T02:55:10.670Z,4.80
2022-10-05T02:58:02.693Z,4.57
2022-10-05T03:00:34.620Z,4.40
2022-10-05T03:03:18.734Z,4.97
2022-10-05T03:06:05.817Z,4.80
2022-10-05T03:08:40.374Z,4.60
2022-10-05T03:11:13.574Z,4.68
2022-10-05T03:14:19.691Z,4.63
2022-10-05T03:17:07.032Z,4.47
2022-10-05T03:19:47.859Z,4.85
2022-10-05T03:22:21.376Z,4.10
2022-10-05T03:24:52.818Z,4.40
2022-10-05T03:29:54.614Z,4.43
2022-10-05T03:32:40.239Z,4.32
2022-10-05T03:35:43.095Z,4.70
2022-10-05T03:38:31.960Z,4.40
2022-10-05T03:41:17.596Z,4.30
2022-10-05T03:44:16.003Z,4.10
2022-10-05T03:46:57.725Z,3.63
2022-10-05T03:49:57.911Z,4.07
2022-10-05T03:55:02.964Z,4.50
2022-10-05T03:57:34.965Z,4.25
2022-10-05T04:00:09.161Z,4.45
2022-10-05T04:02:56.122Z,4.25
2022-10-05T04:05:28.898Z,3.97
2022-10-05T04:08:01.433Z,4.05
2022-10-05T04:10:41.579Z,4.05
2022-10-05T04:13:41.321Z,4.20
2022-10-05T04:16:14.408Z,3.75
2022-10-05T04:18:58.249Z,4.35
2022-10-05T04:21:31.172Z,3.80
2022-10-05T04:24:04.448Z,3.90
2022-10-05T04:26:40.875Z,4.20
2022-10-05T04:29:24.519Z,4.32
2022-10-05T04:32:15.596Z,5.00
2022-10-05T04:35:02.434Z,4.10
2022-10-05T04:38:00.836Z,3.97
2022-10-05T04:40:39.243Z,3.75
2022-10-05T04:43:15.311Z,4.15
2022-10-05T04:46:01.115Z,3.80
2022-10-05T04:49:06.195Z,4.00
2022-10-05T04:51:39.729Z,4.60
2022-10-05T04:54:25.009Z,4.45
2022-10-05T04:56:59.521Z,4.43
2022-10-05T04:59:46.279Z,3.92
2022-10-05T05:02:27.417Z,3.90
2022-10-05T05:05:32.427Z,3.63
2022-10-05T05:08:23.063Z,4.32
2022-10-05T05:11:16.756Z,4.28
2022-10-05T05:14:07.358Z,4.60
2022-10-05T05:16:40.553Z,5.03
2022-10-05T05:19:21.078Z,4.10
2022-10-05T05:22:07.379Z,4.63
2022-10-05T05:25:00.169Z,3.88
2022-10-05T05:27:36.384Z,4.20
2022-10-05T05:30:26.651Z,4.50
2022-10-05T05:32:58.946Z,4.30
2022-10-05T05:35:41.818Z,3.65
2022-10-05T05:38:18.991Z,4.03
2022-10-05T05:41:00.038Z,4.15
2022-10-05T05:43:48.220Z,4.25
2022-10-05T05:47:02.960Z,4.65
2022-10-05T05:49:51.360Z,4.15
2022-10-05T05:52:57.476Z,4.20
2022-10-05T05:55:30.642Z,4.43
2022-10-05T05:58:24.920Z,4.07
2022-10-05T06:01:31.678Z,5.10
2022-10-05T06:04:03.560Z,4.90
2022-10-05T06:06:33.025Z,4.85
2022-10-05T06:09:04.354Z,4.23
2022-10-05T06:11:50.663Z,4.65
2022-10-05T06:14:46.337Z,4.18
2022-10-05T06:17:26.782Z,4.40
2022-10-05T06:20:02.520Z,4.40
2022-10-05T06:22:36.144Z,3.75
2022-10-05T06:25:13.635Z,4.95
2022-10-05T06:28:10.147Z,5.22
2022-10-05T06:30:58.813Z,4.45
2022-10-05T06:33:53.664Z,5.45
2022-10-05T06:36:35.205Z,5.97
2022-10-05T06:39:09.705Z,4.80
2022-10-05T06:41:43.374Z,5.03
2022-10-05T06:44:17.014Z,5.18
2022-10-05T06:47:15.109Z,5.97
2022-10-05T06:50:38.434Z,4.95
2022-10-05T06:53:37.029Z,4.70
2022-10-05T06:56:08.802Z,4.78
2022-10-05T06:58:42.850Z,4.40
2022-10-05T07:01:33.302Z,4.93
2022-10-05T07:04:09.852Z,4.80
2022-10-05T07:06:37.720Z,4.35
2022-10-05T07:09:24.965Z,4.72
2022-10-05T07:12:11.138Z,4.97
2022-10-05T07:15:08.651Z,4.30
2022-10-05T07:17:45.623Z,17.13
2022-10-05T07:20:30.774Z,7.60
2022-10-05T07:23:10.251Z,15.88
2022-10-05T07:26:09.995Z,5.47
2022-10-05T07:28:48.755Z,6.70
2022-10-05T07:31:33.363Z,4.85
2022-10-05T07:34:41.203Z,5.30
2022-10-05T07:37:57.711Z,5.07
2022-10-05T07:40:33.441Z,5.38
2022-10-05T07:43:15.917Z,5.55
2022-10-05T07:45:51.645Z,5.13
2022-10-05T07:48:21.546Z,4.82
2022-10-05T07:50:58.918Z,6.00
2022-10-05T07:53:39.552Z,7.45
2022-10-05T07:56:35.338Z,5.30
2022-10-05T07:59:10.651Z,4.93
2022-10-05T08:01:42.176Z,4.88
2022-10-05T08:04:28.003Z,3.75
2022-10-05T08:07:05.319Z,3.83
2022-10-05T08:09:45.482Z,3.10
2022-10-05T08:12:37.391Z,3.70
2022-10-05T08:15:14.076Z,4.00
2022-10-05T08:18:00.475Z,4.35
2022-10-05T08:20:34.568Z,3.50
2022-10-05T08:23:08.807Z,3.10
2022-10-05T08:25:41.371Z,4.25
2022-10-05T08:28:15.554Z,2.97
2022-10-05T08:30:57.250Z,3.45
2022-10-05T08:33:25.875Z,3.60
2022-10-05T08:36:05.662Z,3.67
2022-10-05T08:38:33.734Z,3.75
2022-10-05T08:41:45.648Z,3.15
2022-10-05T08:44:46.168Z,3.63
2022-10-05T08:50:17.369Z,4.45
2022-10-05T08:53:09.293Z,3.78
2022-10-05T08:55:36.504Z,3.70
2022-10-05T08:58:30.117Z,3.30
2022-10-05T09:01:13.127Z,4.60
2022-10-05T09:04:06.721Z,5.72
2022-10-05T09:07:02.230Z,3.58
2022-10-05T09:09:48.534Z,3.80
2022-10-05T09:12:34.529Z,3.70
2022-10-05T09:15:26.625Z,3.42
2022-10-05T09:18:21.875Z,3.58
2022-10-05T09:20:59.698Z,3.83
2022-10-05T09:23:39.664Z,3.50
2022-10-05T09:26:41.681Z,3.47
2022-10-05T09:29:12.085Z,4.00
2022-10-05T09:34:56.102Z,3.63
2022-10-05T09:37:55.455Z,4.13
2022-10-05T09:40:41.788Z,4.50
2022-10-05T09:43:17.311Z,4.13
2022-10-05T09:46:23.347Z,3.13
2022-10-05T09:49:06.889Z,3.13
2022-10-05T09:52:13.928Z,3.78
2022-10-05T09:55:08.211Z,3.85
2022-10-05T09:58:03.826Z,3.45
2022-10-05T10:00:59.571Z,3.50
2022-10-05T10:03:58.532Z,3.50
2022-10-05T10:06:35.042Z,3.88
2022-10-05T10:09:08.067Z,6.47
2022-10-05T10:12:06.286Z,10.52
2022-10-05T10:14:39.503Z,8.57
2022-10-05T10:17:33.212Z,6.63
2022-10-05T10:20:28.055Z,5.35
2022-10-05T10:23:08.918Z,5.07
2022-10-05T10:25:48.303Z,4.20
2022-10-05T10:28:21.558Z,4.20
2022-10-05T10:31:25.177Z,3.90
2022-10-05T10:34:20.385Z,3.30
2022-10-05T10:36:59.659Z,2.80
2022-10-05T10:39:48.289Z,5.28
2022-10-05T10:42:33.831Z,9.40
2022-10-05T10:45:48.320Z,13.20
2022-10-05T10:48:18.631Z,21.38
2022-10-05T10:53:48.409Z,9.90
2022-10-05T10:56:43.699Z,8.57
2022-10-05T10:59:48.653Z,8.77
2022-10-05T11:02:50.640Z,5.78
2022-10-05T11:05:50.333Z,6.40
2022-10-05T11:08:22.249Z,5.70
2022-10-05T11:11:14.422Z,5.88
2022-10-05T11:14:21.057Z,6.40
2022-10-05T11:17:00.650Z,5.70
2022-10-05T11:20:03.489Z,4.82
2022-10-05T11:23:04.197Z,5.55
2022-10-05T11:26:09.176Z,4.53
2022-10-05T11:29:13.856Z,4.07
2022-10-05T11:32:02.806Z,2.65
2022-10-05T11:34:55.077Z,2.90
2022-10-05T11:37:55.941Z,3.17
2022-10-05T11:41:02.204Z,2.45
2022-10-05T11:43:47.718Z,4.35
2022-10-05T11:46:16.202Z,3.90
2022-10-05T11:49:09.472Z,5.63
2022-10-05T11:51:42.691Z,6.82
2022-10-05T11:54:09.862Z,4.75
2022-10-05T11:56:43.252Z,3.50
2022-10-05T11:59:18.992Z,4.57
2022-10-05T12:02:39.985Z,3.28
2022-10-05T12:05:23.724Z,4.55
2022-10-05T12:08:20.918Z,5.72
2022-10-05T12:10:58.522Z,5.18
2022-10-05T12:13:53.947Z,3.95
2022-10-05T12:16:27.688Z,4.07
2022-10-05T12:19:04.676Z,4.10
2022-10-05T12:21:44.466Z,4.85
2022-10-05T12:24:22.192Z,4.20
2022-10-05T12:30:08.241Z,3.13
2022-10-05T12:32:38.661Z,2.47
2022-10-05T12:35:14.967Z,2.80
2022-10-05T12:37:48.199Z,2.50
2022-10-05T12:40:33.853Z,3.22
2022-10-05T12:43:12.569Z,3.10
2022-10-05T12:45:43.593Z,2.90
2022-10-05T12:48:18.764Z,2.53
2022-10-05T12:50:51.265Z,2.10
2022-10-05T12:53:25.192Z,2.10
2022-10-05T12:56:30.617Z,2.33
2022-10-05T12:59:19.617Z,2.40
2022-10-05T13:02:09.254Z,3.00
2022-10-05T13:04:45.049Z,2.97
2022-10-05T13:07:21.665Z,2.30
2022-10-05T13:10:01.177Z,2.30
2022-10-05T13:12:41.309Z,2.22
2022-10-05T13:15:14.200Z,2.47
2022-10-05T13:17:48.793Z,1.88
2022-10-05T13:20:24.911Z,2.38
2022-10-05T13:22:59.457Z,3.42
2022-10-05T13:25:51.685Z,2.38
2022-10-05T13:28:42.076Z,2.70
2022-10-05T13:31:13.683Z,2.78
2022-10-05T13:33:43.854Z,2.83
2022-10-05T13:36:18.930Z,2.15
2022-10-05T13:38:56.853Z,2.90
2022-10-05T13:41:54.468Z,2.80
2022-10-05T13:44:27.253Z,2.40
2022-10-05T13:47:02.268Z,2.30
2022-10-05T13:49:38.774Z,2.50
2022-10-05T13:53:00.433Z,2.70
2022-10-05T13:55:34.289Z,2.58
2022-10-05T13:58:22.810Z,2.70
2022-10-05T14:00:53.527Z,2.75
2022-10-05T14:03:38.845Z,3.00
2022-10-05T14:06:13.087Z,2.80
2022-10-05T14:08:49.312Z,2.60
2022-10-05T14:11:31.871Z,3.10
2022-10-05T14:14:17.815Z,2.97
2022-10-05T14:16:54.286Z,3.10
2022-10-05T14:19:27.043Z,2.70
2022-10-05T14:22:02.854Z,3.33
2022-10-05T14:24:43.800Z,3.20
2022-10-05T14:27:22.618Z,2.90
2022-10-05T14:30:00.899Z,3.72
2022-10-05T14:32:32.968Z,3.63
2022-10-05T14:35:05.114Z,3.58
2022-10-05T14:37:43.317Z,3.45
2022-10-05T14:40:34.489Z,2.80
2022-10-05T14:43:14.440Z,3.35
2022-10-05T14:46:25.152Z,2.92
2022-10-05T14:49:17.205Z,2.95
2022-10-05T14:51:44.729Z,3.50
2022-10-05T14:54:36.207Z,3.50
2022-10-05T14:57:47.101Z,3.22
2022-10-05T15:00:18.795Z,3.30
2022-10-05T15:03:17.440Z,3.40
2022-10-05T15:05:54.041Z,3.63
2022-10-05T15:08:45.101Z,3.03
2022-10-05T15:11:44.176Z,3.10
2022-10-05T15:14:23.927Z,3.20
2022-10-05T15:16:58.215Z,3.10
2022-10-05T15:19:48.612Z,3.20
2022-10-05T15:22:49.813Z,3.40
2022-10-05T15:25:27.815Z,3.22
2022-10-05T15:28:13.338Z,3.13
2022-10-05T15:30:47.823Z,3.40
2022-10-05T15:33:28.896Z,3.60
2022-10-05T15:36:11.909Z,2.90
2022-10-05T15:38:44.153Z,3.47
2022-10-05T15:41:28.023Z,3.15
2022-10-05T15:44:14.696Z,2.92
2022-10-05T15:46:58.412Z,3.47
2022-10-05T15:49:50.375Z,3.50
2022-10-05T15:52:30.389Z,4.00
2022-10-05T15:55:19.925Z,3.60
2022-10-05T15:58:31.376Z,3.63
2022-10-05T16:01:06.157Z,4.03
2022-10-05T16:03:45.182Z,3.10
2022-10-05T16:06:43.157Z,3.00
2022-10-05T16:09:33.059Z,3.00
2022-10-05T16:12:12.915Z,3.63
2022-10-05T16:14:54.525Z,2.92
2022-10-05T16:18:07.449Z,4.07
2022-10-05T16:20:50.090Z,4.20
2022-10-05T16:23:59.042Z,3.90
2022-10-05T16:26:35.218Z,3.50
2022-10-05T16:29:13.375Z,3.60
2022-10-05T16:31:54.303Z,3.75
2022-10-05T16:34:40.558Z,4.00
2022-10-05T16:37:09.729Z,3.72
2022-10-05T16:39:46.506Z,3.38
2022-10-05T16:42:29.678Z,3.67
2022-10-05T16:45:08.154Z,4.00
2022-10-05T16:47:57.137Z,4.00
2022-10-05T16:50:38.452Z,3.40
2022-10-05T16:53:23.647Z,4.57
2022-10-05T16:56:01.831Z,3.90
2022-10-05T16:58:34.917Z,4.03
2022-10-05T17:01:10.900Z,3.72
2022-10-05T17:04:05.551Z,4.20
2022-10-05T17:07:08.330Z,3.83
2022-10-05T17:09:45.802Z,4.18
2022-10-05T17:12:29.363Z,4.45
2022-10-05T17:15:19.637Z,3.92
2022-10-05T17:21:00.769Z,4.13
2022-10-05T17:23:53.415Z,3.60
2022-10-05T17:26:45.178Z,4.45
2022-10-05T17:29:51.853Z,4.65
2022-10-05T17:32:19.146Z,4.60
2022-10-05T17:35:01.475Z,5.10
2022-10-05T17:37:43.629Z,5.25
2022-10-05T17:40:29.324Z,4.63
2022-10-05T17:43:02.322Z,5.07
2022-10-05T17:45:29.747Z,5.82
2022-10-05T17:47:56.888Z,4.80
2022-10-05T17:51:02.451Z,4.95
2022-10-05T17:54:03.710Z,5.57
2022-10-05T17:56:46.778Z,4.78
2022-10-05T17:59:45.799Z,4.85
2022-10-05T18:02:26.697Z,5.07
2022-10-05T18:05:12.384Z,6.82
2022-10-05T18:07:41.036Z,5.70
2022-10-05T18:10:17.360Z,5.75
2022-10-05T18:12:46.111Z,6.00
2022-10-05T18:15:24.066Z,5.10
2022-10-05T18:18:32.434Z,5.82
2022-10-05T18:21:14.912Z,5.85
2022-10-05T18:23:52.553Z,4.60
2022-10-05T18:26:43.635Z,5.03
2022-10-05T18:30:02.582Z,5.65
2022-10-05T18:32:35.525Z,5.05
2022-10-05T18:35:40.255Z,6.13
2022-10-05T18:38:41.842Z,6.43
2022-10-05T18:41:32.019Z,5.45
2022-10-05T18:44:14.416Z,4.85
2022-10-05T18:46:44.408Z,4.57
2022-10-05T18:49:30.097Z,4.90
2022-10-05T18:52:07.446Z,4.38
2022-10-05T18:54:50.147Z,4.45
2022-10-05T18:57:20.524Z,5.00
2022-10-05T18:59:57.576Z,3.72
2022-10-05T19:02:34.182Z,1.80
2022-10-05T19:05:46.410Z,1.65
2022-10-05T19:08:21.737Z,1.10
2022-10-05T19:10:55.907Z,1.50
2022-10-05T19:13:37.969Z,1.10
2022-10-05T19:16:37.269Z,1.23
2022-10-05T19:19:30.832Z,1.83
2022-10-05T19:22:19.720Z,1.63
2022-10-05T19:25:21.834Z,1.85
2022-10-05T19:28:13.513Z,1.60
2022-10-05T19:31:01.199Z,1.73
2022-10-05T19:33:33.536Z,2.63
2022-10-05T19:36:22.212Z,2.00
2022-10-05T19:39:15.195Z,1.13
2022-10-05T19:42:12.347Z,1.52
2022-10-05T19:45:18.658Z,2.28
2022-10-05T19:47:48.779Z,1.38
2022-10-05T19:50:27.795Z,1.33
2022-10-05T19:53:08.198Z,1.10
2022-10-05T19:55:41.685Z,1.38
2022-10-05T19:58:27.165Z,1.20
2022-10-05T20:01:00.421Z,1.90
2022-10-05T20:03:31.618Z,1.70
2022-10-05T20:06:01.105Z,1.10
2022-10-05T20:08:43.963Z,0.97
2022-10-05T20:11:13.720Z,1.10
2022-10-05T20:13:44.530Z,1.58
2022-10-05T20:19:46.789Z,1.70
2022-10-05T20:22:36.070Z,1.60
2022-10-05T20:25:06.350Z,1.20
2022-10-05T20:30:34.229Z,2.10
2022-10-05T20:33:03.087Z,3.05
2022-10-05T20:35:30.710Z,1.73
2022-10-05T20:37:59.452Z,1.83
2022-10-05T20:40:29.103Z,1.75
2022-10-05T20:42:57.546Z,1.60
2022-10-05T20:45:25.103Z,1.75
2022-10-05T20:47:52.509Z,1.40
2022-10-05T20:50:22.844Z,1.70
2022-10-05T20:55:17.215Z,1.60
2022-10-05T20:57:46.093Z,1.25
2022-10-05T21:00:13.748Z,0.90
2022-10-05T21:02:41.101Z,1.50
2022-10-05T21:05:08.836Z,1.58
2022-10-05T21:07:36.179Z,1.15
2022-10-05T21:10:10.184Z,1.25
2022-10-05T21:12:41.078Z,1.33
2022-10-05T21:15:10.448Z,1.35
2022-10-05T21:17:38.054Z,1.60
2022-10-05T21:20:05.812Z,0.93
2022-10-05T21:22:33.077Z,1.27
2022-10-05T21:25:00.471Z,1.15
2022-10-05T21:27:28.242Z,1.30
2022-10-05T21:29:55.570Z,1.00
2022-10-05T21:32:22.824Z,1.88
2022-10-05T21:34:50.132Z,1.80
2022-10-05T21:37:18.110Z,1.65
2022-10-05T21:39:45.778Z,1.70
2022-10-05T21:42:13.340Z,1.30
2022-10-05T21:44:41.628Z,1.70
2022-10-05T21:47:09.663Z,1.23
2022-10-05T21:49:37.686Z,1.30
2022-10-05T21:52:05.451Z,1.50
2022-10-05T21:54:33.387Z,1.17
2022-10-05T21:57:00.945Z,1.45
2022-10-05T21:59:32.086Z,1.83
2022-10-05T22:01:59.354Z,1.85
2022-10-05T22:04:26.813Z,1.48
2022-10-05T22:06:55.007Z,1.58
2022-10-05T22:09:22.204Z,1.65
2022-10-05T22:11:49.615Z,1.38
2022-10-05T22:14:16.991Z,1.40
2022-10-05T22:16:44.981Z,1.80
2022-10-05T22:19:17.880Z,1.73
2022-10-05T22:21:45.143Z,2.13
2022-10-05T22:24:12.461Z,1.60
2022-10-05T22:26:41.266Z,1.67
2022-10-05T22:29:09.640Z,1.55
2022-10-05T22:31:37.250Z,1.75
2022-10-05T22:34:04.784Z,1.70
2022-10-05T22:36:34.915Z,1.75
2022-10-05T22:39:02.412Z,1.77
2022-10-05T22:41:29.713Z,1.50
2022-10-05T22:43:57.030Z,1.38
2022-10-05T22:46:24.554Z,1.52
2022-10-05T22:48:51.849Z,1.60
2022-10-05T22:51:19.137Z,1.75
2022-10-05T22:53:46.463Z,1.27
2022-10-05T22:56:14.467Z,1.60
2022-10-05T22:58:43.004Z,2.20
2022-10-05T23:01:13.269Z,2.03
2022-10-05T23:06:18.193Z,2.40
2022-10-05T23:08:46.036Z,1.60
2022-10-05T23:11:14.636Z,2.85
2022-10-05T23:13:42.448Z,1.75
2022-10-05T23:16:12.244Z,2.25
2022-10-05T23:18:40.150Z,2.78
2022-10-05T23:21:08.613Z,2.10
2022-10-05T23:23:40.805Z,2.47
2022-10-05T23:26:10.028Z,2.28
2022-10-05T23:28:39.549Z,2.00
2022-10-05T23:31:08.043Z,2.55
2022-10-05T23:33:35.480Z,1.95
2022-10-05T23:36:11.851Z,2.42
2022-10-05T23:38:39.090Z,1.65
2022-10-05T23:41:07.478Z,2.05
2022-10-05T23:43:35.566Z,3.72
2022-10-05T23:46:04.364Z,2.78
2022-10-05T23:48:32.302Z,2.28
2022-10-05T23:51:00.241Z,2.40
2022-10-05T23:53:27.494Z,2.58
2022-10-05T23:55:55.139Z,3.08
2022-10-05T23:58:23.282Z,2.58
